sensor_id;sensor_type;location;lat;lon;timestamp;P1;durP1;ratioP1;P2;durP2;ratioP2
51296;SDS011;37380;45.186;9.792;2023-04-24T00:01:04;11.95;;;5.63;;
51296;SDS011;37380;45.186;9.792;2023-04-24T00:03:34;10.00;;;5.60;;
51296;SDS011;37380;45.186;9.792;2023-04-24T00:06:02;6.95;;;5.43;;
51296;SDS011;37380;45.186;9.792;2023-04-24T00:08:29;6.90;;;5.15;;
51296;SDS011;37380;45.186;9.792;2023-04-24T00:10:56;9.13;;;4.60;;
51296;SDS011;37380;45.186;9.792;2023-04-24T00:13:23;9.23;;;4.70;;
51296;SDS011;37380;45.186;9.792;2023-04-24T00:15:50;7.93;;;5.47;;
51296;SDS011;37380;45.186;9.792;2023-04-24T00:18:17;7.93;;;4.53;;
51296;SDS011;37380;45.186;9.792;2023-04-24T00:20:44;13.50;;;5.32;;
51296;SDS011;37380;45.186;9.792;2023-04-24T00:23:13;5.45;;;3.95;;
51296;SDS011;37380;45.186;9.792;2023-04-24T00:25:40;11.60;;;4.95;;
51296;SDS011;37380;45.186;9.792;2023-04-24T00:28:13;12.85;;;6.00;;
51296;SDS011;37380;45.186;9.792;2023-04-24T00:31:09;11.32;;;5.78;;
51296;SDS011;37380;45.186;9.792;2023-04-24T00:33:36;16.02;;;7.45;;
51296;SDS011;37380;45.186;9.792;2023-04-24T00:36:03;16.00;;;6.88;;
51296;SDS011;37380;45.186;9.792;2023-04-24T00:38:30;11.23;;;5.82;;
51296;SDS011;37380;45.186;9.792;2023-04-24T00:40:57;7.20;;;6.22;;
51296;SDS011;37380;45.186;9.792;2023-04-24T00:43:24;9.38;;;7.15;;
51296;SDS011;37380;45.186;9.792;2023-04-24T00:45:52;9.52;;;6.82;;
51296;SDS011;37380;45.186;9.792;2023-04-24T00:48:20;8.15;;;7.25;;
51296;SDS011;37380;45.186;9.792;2023-04-24T00:50:48;13.57;;;7.88;;
51296;SDS011;37380;45.186;9.792;2023-04-24T00:53:22;5.80;;;5.40;;
51296;SDS011;37380;45.186;9.792;2023-04-24T00:56:23;7.38;;;5.90;;
51296;SDS011;37380;45.186;9.792;2023-04-24T00:59:17;8.82;;;5.88;;
51296;SDS011;37380;45.186;9.792;2023-04-24T01:01:44;14.82;;;6.88;;
51296;SDS011;37380;45.186;9.792;2023-04-24T01:04:12;9.35;;;6.70;;
51296;SDS011;37380;45.186;9.792;2023-04-24T01:06:40;12.32;;;6.10;;
51296;SDS011;37380;45.186;9.792;2023-04-24T01:09:09;16.30;;;6.88;;
51296;SDS011;37380;45.186;9.792;2023-04-24T01:11:38;7.70;;;6.38;;
51296;SDS011;37380;45.186;9.792;2023-04-24T01:14:08;12.82;;;6.28;;
51296;SDS011;37380;45.186;9.792;2023-04-24T01:16:36;8.73;;;6.32;;
51296;SDS011;37380;45.186;9.792;2023-04-24T01:19:07;9.82;;;5.95;;
51296;SDS011;37380;45.186;9.792;2023-04-24T01:21:37;9.70;;;6.68;;
51296;SDS011;37380;45.186;9.792;2023-04-24T01:24:05;10.82;;;7.65;;
51296;SDS011;37380;45.186;9.792;2023-04-24T01:26:33;8.75;;;7.85;;
51296;SDS011;37380;45.186;9.792;2023-04-24T01:29:07;13.18;;;8.82;;
51296;SDS011;37380;45.186;9.792;2023-04-24T01:32:01;9.70;;;8.57;;
51296;SDS011;37380;45.186;9.792;2023-04-24T01:34:29;15.38;;;8.25;;
51296;SDS011;37380;45.186;9.792;2023-04-24T01:36:56;10.00;;;7.78;;
51296;SDS011;37380;45.186;9.792;2023-04-24T01:39:23;7.68;;;7.00;;
51296;SDS011;37380;45.186;9.792;2023-04-24T01:41:53;7.43;;;6.65;;
51296;SDS011;37380;45.186;9.792;2023-04-24T01:44:21;11.57;;;7.93;;
51296;SDS011;37380;45.186;9.792;2023-04-24T01:46:48;19.35;;;9.70;;
51296;SDS011;37380;45.186;9.792;2023-04-24T01:49:15;9.65;;;7.60;;
51296;SDS011;37380;45.186;9.792;2023-04-24T01:51:44;9.95;;;7.97;;
51296;SDS011;37380;45.186;9.792;2023-04-24T01:54:11;15.70;;;7.93;;
51296;SDS011;37380;45.186;9.792;2023-04-24T01:56:42;8.68;;;6.75;;
51296;SDS011;37380;45.186;9.792;2023-04-24T01:59:10;15.48;;;8.15;;
51296;SDS011;37380;45.186;9.792;2023-04-24T02:01:38;8.82;;;7.60;;
51296;SDS011;37380;45.186;9.792;2023-04-24T02:04:06;9.05;;;8.18;;
51296;SDS011;37380;45.186;9.792;2023-04-24T02:06:35;10.52;;;6.40;;
51296;SDS011;37380;45.186;9.792;2023-04-24T02:09:02;13.20;;;8.70;;
51296;SDS011;37380;45.186;9.792;2023-04-24T02:11:30;13.32;;;8.23;;
51296;SDS011;37380;45.186;9.792;2023-04-24T02:13:57;11.10;;;8.07;;
51296;SDS011;37380;45.186;9.792;2023-04-24T02:16:25;11.05;;;8.07;;
51296;SDS011;37380;45.186;9.792;2023-04-24T02:18:52;12.85;;;8.02;;
51296;SDS011;37380;45.186;9.792;2023-04-24T02:21:19;9.90;;;8.65;;
51296;SDS011;37380;45.186;9.792;2023-04-24T02:23:46;12.68;;;9.20;;
51296;SDS011;37380;45.186;9.792;2023-04-24T02:26:13;9.40;;;8.40;;
51296;SDS011;37380;45.186;9.792;2023-04-24T02:28:47;10.63;;;9.73;;
51296;SDS011;37380;45.186;9.792;2023-04-24T02:31:48;13.95;;;11.48;;
51296;SDS011;37380;45.186;9.792;2023-04-24T02:34:42;11.93;;;10.77;;
51296;SDS011;37380;45.186;9.792;2023-04-24T02:37:11;16.55;;;12.88;;
51296;SDS011;37380;45.186;9.792;2023-04-24T02:39:38;14.75;;;11.02;;
51296;SDS011;37380;45.186;9.792;2023-04-24T02:42:06;19.38;;;11.88;;
51296;SDS011;37380;45.186;9.792;2023-04-24T02:44:34;21.23;;;12.45;;
51296;SDS011;37380;45.186;9.792;2023-04-24T02:47:01;17.80;;;12.80;;
51296;SDS011;37380;45.186;9.792;2023-04-24T02:49:29;16.33;;;13.85;;
51296;SDS011;37380;45.186;9.792;2023-04-24T02:51:56;17.10;;;15.38;;
51296;SDS011;37380;45.186;9.792;2023-04-24T02:54:23;17.30;;;13.68;;
51296;SDS011;37380;45.186;9.792;2023-04-24T02:56:51;15.80;;;13.55;;
51296;SDS011;37380;45.186;9.792;2023-04-24T02:59:18;23.75;;;15.07;;
51296;SDS011;37380;45.186;9.792;2023-04-24T03:01:52;26.67;;;15.73;;
51296;SDS011;37380;45.186;9.792;2023-04-24T03:04:48;21.02;;;16.65;;
51296;SDS011;37380;45.186;9.792;2023-04-24T03:07:15;20.73;;;16.80;;
51296;SDS011;37380;45.186;9.792;2023-04-24T03:09:42;19.80;;;16.92;;
51296;SDS011;37380;45.186;9.792;2023-04-24T03:12:10;24.25;;;17.55;;
51296;SDS011;37380;45.186;9.792;2023-04-24T03:14:38;19.85;;;16.52;;
51296;SDS011;37380;45.186;9.792;2023-04-24T03:17:05;17.98;;;15.48;;
51296;SDS011;37380;45.186;9.792;2023-04-24T03:19:32;20.90;;;15.10;;
51296;SDS011;37380;45.186;9.792;2023-04-24T03:22:04;15.85;;;14.20;;
51296;SDS011;37380;45.186;9.792;2023-04-24T03:24:32;15.70;;;13.63;;
51296;SDS011;37380;45.186;9.792;2023-04-24T03:26:59;17.20;;;13.90;;
51296;SDS011;37380;45.186;9.792;2023-04-24T03:29:52;15.38;;;13.57;;
51296;SDS011;37380;45.186;9.792;2023-04-24T03:32:52;24.65;;;13.90;;
51296;SDS011;37380;45.186;9.792;2023-04-24T03:35:23;16.15;;;14.20;;
51296;SDS011;37380;45.186;9.792;2023-04-24T03:37:52;15.40;;;13.90;;
51296;SDS011;37380;45.186;9.792;2023-04-24T03:40:37;14.50;;;13.00;;
51296;SDS011;37380;45.186;9.792;2023-04-24T03:43:14;16.70;;;14.93;;
51296;SDS011;37380;45.186;9.792;2023-04-24T03:45:41;26.85;;;14.15;;
51296;SDS011;37380;45.186;9.792;2023-04-24T03:48:10;13.63;;;12.50;;
51296;SDS011;37380;45.186;9.792;2023-04-24T03:50:37;16.85;;;13.48;;
51296;SDS011;37380;45.186;9.792;2023-04-24T03:53:06;17.38;;;13.75;;
51296;SDS011;37380;45.186;9.792;2023-04-24T03:55:38;14.65;;;12.55;;
51296;SDS011;37380;45.186;9.792;2023-04-24T03:58:12;14.02;;;12.80;;
51296;SDS011;37380;45.186;9.792;2023-04-24T04:01:13;15.65;;;13.93;;
51296;SDS011;37380;45.186;9.792;2023-04-24T04:04:19;14.18;;;12.70;;
51296;SDS011;37380;45.186;9.792;2023-04-24T04:07:11;14.20;;;12.30;;
51296;SDS011;37380;45.186;9.792;2023-04-24T04:09:39;19.00;;;12.30;;
51296;SDS011;37380;45.186;9.792;2023-04-24T04:12:07;14.02;;;12.68;;
51296;SDS011;37380;45.186;9.792;2023-04-24T04:14:36;16.73;;;13.65;;
51296;SDS011;37380;45.186;9.792;2023-04-24T04:17:03;15.35;;;13.52;;
51296;SDS011;37380;45.186;9.792;2023-04-24T04:19:30;18.60;;;13.45;;
51296;SDS011;37380;45.186;9.792;2023-04-24T04:21:57;17.42;;;12.25;;
51296;SDS011;37380;45.186;9.792;2023-04-24T04:24:39;17.67;;;13.80;;
51296;SDS011;37380;45.186;9.792;2023-04-24T04:27:08;16.00;;;14.38;;
51296;SDS011;37380;45.186;9.792;2023-04-24T04:29:50;15.98;;;14.25;;
51296;SDS011;37380;45.186;9.792;2023-04-24T04:32:52;23.50;;;15.82;;
51296;SDS011;37380;45.186;9.792;2023-04-24T04:35:20;20.50;;;17.83;;
51296;SDS011;37380;45.186;9.792;2023-04-24T04:37:50;22.48;;;18.65;;
51296;SDS011;37380;45.186;9.792;2023-04-24T04:40:47;21.85;;;16.45;;
51296;SDS011;37380;45.186;9.792;2023-04-24T04:43:16;26.80;;;15.80;;
51296;SDS011;37380;45.186;9.792;2023-04-24T04:45:50;17.90;;;15.52;;
51296;SDS011;37380;45.186;9.792;2023-04-24T04:48:33;16.95;;;15.27;;
51296;SDS011;37380;45.186;9.792;2023-04-24T04:51:03;17.88;;;16.05;;
51296;SDS011;37380;45.186;9.792;2023-04-24T04:53:30;20.10;;;14.77;;
51296;SDS011;37380;45.186;9.792;2023-04-24T04:55:57;16.00;;;14.50;;
51296;SDS011;37380;45.186;9.792;2023-04-24T04:58:40;28.55;;;14.90;;
51296;SDS011;37380;45.186;9.792;2023-04-24T05:01:18;15.52;;;13.98;;
51296;SDS011;37380;45.186;9.792;2023-04-24T05:04:22;24.13;;;13.48;;
51296;SDS011;37380;45.186;9.792;2023-04-24T05:07:23;15.98;;;14.27;;
51296;SDS011;37380;45.186;9.792;2023-04-24T05:10:17;18.92;;;14.10;;
51296;SDS011;37380;45.186;9.792;2023-04-24T05:12:44;16.67;;;13.68;;
51296;SDS011;37380;45.186;9.792;2023-04-24T05:15:12;17.83;;;14.02;;
51296;SDS011;37380;45.186;9.792;2023-04-24T05:17:39;13.80;;;12.48;;
51296;SDS011;37380;45.186;9.792;2023-04-24T05:20:08;16.73;;;13.82;;
51296;SDS011;37380;45.186;9.792;2023-04-24T05:22:37;17.98;;;14.43;;
51296;SDS011;37380;45.186;9.792;2023-04-24T05:25:04;16.23;;;12.57;;
51296;SDS011;37380;45.186;9.792;2023-04-24T05:27:46;15.40;;;12.60;;
51296;SDS011;37380;45.186;9.792;2023-04-24T05:30:36;16.90;;;13.60;;
51296;SDS011;37380;45.186;9.792;2023-04-24T05:33:03;15.05;;;13.55;;
51296;SDS011;37380;45.186;9.792;2023-04-24T05:35:33;15.45;;;14.05;;
51296;SDS011;37380;45.186;9.792;2023-04-24T05:38:00;18.80;;;14.88;;
51296;SDS011;37380;45.186;9.792;2023-04-24T05:40:27;16.27;;;14.10;;
51296;SDS011;37380;45.186;9.792;2023-04-24T05:42:54;16.77;;;14.40;;
51296;SDS011;37380;45.186;9.792;2023-04-24T05:45:23;16.33;;;14.50;;
51296;SDS011;37380;45.186;9.792;2023-04-24T05:47:50;15.60;;;13.93;;
51296;SDS011;37380;45.186;9.792;2023-04-24T05:50:19;16.80;;;14.13;;
51296;SDS011;37380;45.186;9.792;2023-04-24T05:52:46;15.20;;;13.57;;
51296;SDS011;37380;45.186;9.792;2023-04-24T05:55:27;20.77;;;14.00;;
51296;SDS011;37380;45.186;9.792;2023-04-24T05:57:54;16.13;;;14.55;;
51296;SDS011;37380;45.186;9.792;2023-04-24T06:00:23;15.77;;;13.45;;
51296;SDS011;37380;45.186;9.792;2023-04-24T06:02:59;15.90;;;13.77;;
51296;SDS011;37380;45.186;9.792;2023-04-24T06:05:27;15.60;;;13.90;;
51296;SDS011;37380;45.186;9.792;2023-04-24T06:07:54;16.65;;;15.00;;
51296;SDS011;37380;45.186;9.792;2023-04-24T06:10:24;16.60;;;14.95;;
51296;SDS011;37380;45.186;9.792;2023-04-24T06:12:52;19.00;;;15.90;;
51296;SDS011;37380;45.186;9.792;2023-04-24T06:15:19;16.15;;;14.50;;
51296;SDS011;37380;45.186;9.792;2023-04-24T06:17:56;17.50;;;15.90;;
51296;SDS011;37380;45.186;9.792;2023-04-24T06:20:25;13.95;;;12.65;;
51296;SDS011;37380;45.186;9.792;2023-04-24T06:22:52;16.80;;;15.05;;
51296;SDS011;37380;45.186;9.792;2023-04-24T06:25:19;16.10;;;14.05;;
51296;SDS011;37380;45.186;9.792;2023-04-24T06:27:53;15.73;;;14.23;;
51296;SDS011;37380;45.186;9.792;2023-04-24T06:30:54;17.50;;;15.10;;
51296;SDS011;37380;45.186;9.792;2023-04-24T06:33:55;17.08;;;14.23;;
51296;SDS011;37380;45.186;9.792;2023-04-24T06:36:24;14.25;;;12.70;;
51296;SDS011;37380;45.186;9.792;2023-04-24T06:38:51;14.73;;;13.45;;
51296;SDS011;37380;45.186;9.792;2023-04-24T06:41:18;18.10;;;14.48;;
51296;SDS011;37380;45.186;9.792;2023-04-24T06:43:45;14.43;;;12.93;;
51296;SDS011;37380;45.186;9.792;2023-04-24T06:46:13;14.65;;;13.23;;
51296;SDS011;37380;45.186;9.792;2023-04-24T06:48:40;15.70;;;14.18;;
51296;SDS011;37380;45.186;9.792;2023-04-24T06:51:07;14.73;;;13.02;;
51296;SDS011;37380;45.186;9.792;2023-04-24T06:53:34;16.90;;;15.20;;
51296;SDS011;37380;45.186;9.792;2023-04-24T06:56:01;22.02;;;14.43;;
51296;SDS011;37380;45.186;9.792;2023-04-24T06:58:29;14.50;;;12.90;;
51296;SDS011;37380;45.186;9.792;2023-04-24T07:00:57;21.35;;;13.35;;
51296;SDS011;37380;45.186;9.792;2023-04-24T07:03:24;15.93;;;12.35;;
51296;SDS011;37380;45.186;9.792;2023-04-24T07:05:59;16.60;;;13.35;;
51296;SDS011;37380;45.186;9.792;2023-04-24T07:08:46;18.50;;;12.55;;
51296;SDS011;37380;45.186;9.792;2023-04-24T07:11:14;15.63;;;13.02;;
51296;SDS011;37380;45.186;9.792;2023-04-24T07:13:41;15.30;;;12.52;;
51296;SDS011;37380;45.186;9.792;2023-04-24T07:16:11;15.38;;;13.43;;
51296;SDS011;37380;45.186;9.792;2023-04-24T07:18:38;17.13;;;13.15;;
51296;SDS011;37380;45.186;9.792;2023-04-24T07:21:06;22.27;;;12.73;;
51296;SDS011;37380;45.186;9.792;2023-04-24T07:23:33;22.15;;;14.73;;
51296;SDS011;37380;45.186;9.792;2023-04-24T07:26:01;23.17;;;14.35;;
51296;SDS011;37380;45.186;9.792;2023-04-24T07:28:35;18.23;;;14.23;;
51296;SDS011;37380;45.186;9.792;2023-04-24T07:31:29;17.10;;;15.02;;
51296;SDS011;37380;45.186;9.792;2023-04-24T07:33:57;22.25;;;14.60;;
51296;SDS011;37380;45.186;9.792;2023-04-24T07:36:25;14.65;;;13.20;;
51296;SDS011;37380;45.186;9.792;2023-04-24T07:38:52;19.55;;;14.13;;
51296;SDS011;37380;45.186;9.792;2023-04-24T07:41:20;16.95;;;14.10;;
51296;SDS011;37380;45.186;9.792;2023-04-24T07:43:50;18.67;;;13.95;;
51296;SDS011;37380;45.186;9.792;2023-04-24T07:46:17;14.80;;;13.15;;
51296;SDS011;37380;45.186;9.792;2023-04-24T07:48:44;17.50;;;13.93;;
51296;SDS011;37380;45.186;9.792;2023-04-24T07:51:15;15.68;;;13.30;;
51296;SDS011;37380;45.186;9.792;2023-04-24T07:53:43;12.73;;;11.60;;
51296;SDS011;37380;45.186;9.792;2023-04-24T07:56:11;13.98;;;12.68;;
51296;SDS011;37380;45.186;9.792;2023-04-24T07:58:39;15.45;;;11.00;;
51296;SDS011;37380;45.186;9.792;2023-04-24T08:01:06;13.20;;;11.88;;
51296;SDS011;37380;45.186;9.792;2023-04-24T08:03:40;12.68;;;11.48;;
51296;SDS011;37380;45.186;9.792;2023-04-24T08:06:41;12.07;;;10.65;;
51296;SDS011;37380;45.186;9.792;2023-04-24T08:09:38;16.05;;;11.25;;
51296;SDS011;37380;45.186;9.792;2023-04-24T08:12:05;12.55;;;11.23;;
51296;SDS011;37380;45.186;9.792;2023-04-24T08:14:32;11.70;;;10.68;;
51296;SDS011;37380;45.186;9.792;2023-04-24T08:17:00;17.20;;;10.77;;
51296;SDS011;37380;45.186;9.792;2023-04-24T08:19:28;13.00;;;11.70;;
51296;SDS011;37380;45.186;9.792;2023-04-24T08:21:55;12.27;;;11.15;;
51296;SDS011;37380;45.186;9.792;2023-04-24T08:24:22;11.38;;;10.05;;
51296;SDS011;37380;45.186;9.792;2023-04-24T08:26:50;10.52;;;9.48;;
51296;SDS011;37380;45.186;9.792;2023-04-24T08:29:24;14.13;;;9.85;;
51296;SDS011;37380;45.186;9.792;2023-04-24T08:32:18;10.43;;;9.40;;
51296;SDS011;37380;45.186;9.792;2023-04-24T08:34:45;17.67;;;9.30;;
51296;SDS011;37380;45.186;9.792;2023-04-24T08:37:15;10.27;;;8.95;;
51296;SDS011;37380;45.186;9.792;2023-04-24T08:39:46;13.23;;;10.25;;
51296;SDS011;37380;45.186;9.792;2023-04-24T08:42:13;14.05;;;8.98;;
51296;SDS011;37380;45.186;9.792;2023-04-24T08:44:41;14.65;;;9.38;;
51296;SDS011;37380;45.186;9.792;2023-04-24T08:47:09;7.97;;;7.30;;
51296;SDS011;37380;45.186;9.792;2023-04-24T08:49:41;9.23;;;8.40;;
51296;SDS011;37380;45.186;9.792;2023-04-24T08:52:09;9.07;;;8.27;;
51296;SDS011;37380;45.186;9.792;2023-04-24T08:54:39;10.57;;;9.23;;
51296;SDS011;37380;45.186;9.792;2023-04-24T08:57:12;12.00;;;10.88;;
51296;SDS011;37380;45.186;9.792;2023-04-24T08:59:49;11.73;;;10.30;;
51296;SDS011;37380;45.186;9.792;2023-04-24T09:02:17;14.52;;;10.02;;
51296;SDS011;37380;45.186;9.792;2023-04-24T09:04:45;10.50;;;9.57;;
51296;SDS011;37380;45.186;9.792;2023-04-24T09:07:15;14.23;;;9.70;;
51296;SDS011;37380;45.186;9.792;2023-04-24T09:09:45;14.13;;;8.90;;
51296;SDS011;37380;45.186;9.792;2023-04-24T09:12:12;10.73;;;8.25;;
51296;SDS011;37380;45.186;9.792;2023-04-24T09:14:39;9.25;;;8.40;;
51296;SDS011;37380;45.186;9.792;2023-04-24T09:17:09;10.55;;;9.57;;
51296;SDS011;37380;45.186;9.792;2023-04-24T09:19:37;13.38;;;9.25;;
51296;SDS011;37380;45.186;9.792;2023-04-24T09:22:04;7.43;;;6.80;;
51296;SDS011;37380;45.186;9.792;2023-04-24T09:24:33;7.65;;;7.05;;
51296;SDS011;37380;45.186;9.792;2023-04-24T09:27:02;9.63;;;8.63;;
51296;SDS011;37380;45.186;9.792;2023-04-24T09:29:36;9.93;;;9.02;;
51296;SDS011;37380;45.186;9.792;2023-04-24T09:32:39;9.65;;;8.60;;
51296;SDS011;37380;45.186;9.792;2023-04-24T09:35:26;9.10;;;8.20;;
51296;SDS011;37380;45.186;9.792;2023-04-24T09:37:53;14.68;;;8.20;;
51296;SDS011;37380;45.186;9.792;2023-04-24T09:40:24;9.38;;;8.57;;
51296;SDS011;37380;45.186;9.792;2023-04-24T09:42:52;7.13;;;6.47;;
51296;SDS011;37380;45.186;9.792;2023-04-24T09:45:20;9.55;;;7.18;;
51296;SDS011;37380;45.186;9.792;2023-04-24T09:47:51;8.18;;;6.93;;
51296;SDS011;37380;45.186;9.792;2023-04-24T09:50:20;9.18;;;7.35;;
51296;SDS011;37380;45.186;9.792;2023-04-24T09:55:50;9.02;;;8.20;;
51296;SDS011;37380;45.186;9.792;2023-04-24T09:58:25;8.43;;;7.70;;
51296;SDS011;37380;45.186;9.792;2023-04-24T10:00:56;10.55;;;7.65;;
51296;SDS011;37380;45.186;9.792;2023-04-24T10:03:30;7.90;;;7.28;;
51296;SDS011;37380;45.186;9.792;2023-04-24T10:06:35;7.85;;;6.97;;
51296;SDS011;37380;45.186;9.792;2023-04-24T10:09:29;10.17;;;7.03;;
51296;SDS011;37380;45.186;9.792;2023-04-24T10:11:56;8.95;;;7.13;;
51296;SDS011;37380;45.186;9.792;2023-04-24T10:14:24;8.80;;;7.15;;
51296;SDS011;37380;45.186;9.792;2023-04-24T10:17:00;7.32;;;6.47;;
51296;SDS011;37380;45.186;9.792;2023-04-24T10:19:28;7.82;;;7.03;;
51296;SDS011;37380;45.186;9.792;2023-04-24T10:22:17;7.95;;;6.95;;
51296;SDS011;37380;45.186;9.792;2023-04-24T10:25:14;5.93;;;5.25;;
51296;SDS011;37380;45.186;9.792;2023-04-24T10:27:51;8.17;;;7.37;;
51296;SDS011;37380;45.186;9.792;2023-04-24T10:30:54;7.80;;;7.20;;
51296;SDS011;37380;45.186;9.792;2023-04-24T10:33:22;10.20;;;8.75;;
51296;SDS011;37380;45.186;9.792;2023-04-24T10:35:53;7.00;;;6.32;;
51296;SDS011;37380;45.186;9.792;2023-04-24T10:38:25;7.70;;;7.00;;
51296;SDS011;37380;45.186;9.792;2023-04-24T10:41:11;8.98;;;7.45;;
51296;SDS011;37380;45.186;9.792;2023-04-24T10:43:46;10.90;;;5.90;;
51296;SDS011;37380;45.186;9.792;2023-04-24T10:46:21;7.30;;;6.65;;
51296;SDS011;37380;45.186;9.792;2023-04-24T10:48:52;9.73;;;7.90;;
51296;SDS011;37380;45.186;9.792;2023-04-24T10:51:22;8.65;;;7.53;;
51296;SDS011;37380;45.186;9.792;2023-04-24T10:53:50;15.95;;;7.80;;
51296;SDS011;37380;45.186;9.792;2023-04-24T10:56:18;8.13;;;7.32;;
51296;SDS011;37380;45.186;9.792;2023-04-24T10:58:49;9.70;;;7.85;;
51296;SDS011;37380;45.186;9.792;2023-04-24T11:01:26;8.23;;;7.43;;
51296;SDS011;37380;45.186;9.792;2023-04-24T11:04:01;8.45;;;7.65;;
51296;SDS011;37380;45.186;9.792;2023-04-24T11:06:34;10.40;;;6.80;;
51296;SDS011;37380;45.186;9.792;2023-04-24T11:11:43;10.75;;;9.52;;
51296;SDS011;37380;45.186;9.792;2023-04-24T11:14:15;13.63;;;7.95;;
51296;SDS011;37380;45.186;9.792;2023-04-24T11:16:52;8.70;;;7.95;;
51296;SDS011;37380;45.186;9.792;2023-04-24T11:19:24;9.77;;;7.53;;
51296;SDS011;37380;45.186;9.792;2023-04-24T11:21:57;10.65;;;6.50;;
51296;SDS011;37380;45.186;9.792;2023-04-24T11:33:03;8.32;;;6.97;;
51296;SDS011;37380;45.186;9.792;2023-04-24T11:35:57;9.45;;;5.28;;
51296;SDS011;37380;45.186;9.792;2023-04-24T11:38:24;11.10;;;7.15;;
51296;SDS011;37380;45.186;9.792;2023-04-24T11:40:52;7.47;;;6.88;;
51296;SDS011;37380;45.186;9.792;2023-04-24T11:43:21;7.63;;;6.85;;
51296;SDS011;37380;45.186;9.792;2023-04-24T11:45:48;10.85;;;6.05;;
51296;SDS011;37380;45.186;9.792;2023-04-24T11:48:19;6.40;;;5.80;;
51296;SDS011;37380;45.186;9.792;2023-04-24T11:50:56;6.18;;;5.55;;
51296;SDS011;37380;45.186;9.792;2023-04-24T11:53:57;8.80;;;5.55;;
51296;SDS011;37380;45.186;9.792;2023-04-24T11:56:59;6.50;;;5.38;;
51296;SDS011;37380;45.186;9.792;2023-04-24T11:59:35;4.95;;;4.55;;
51296;SDS011;37380;45.186;9.792;2023-04-24T12:02:04;3.50;;;2.67;;
51296;SDS011;37380;45.186;9.792;2023-04-24T12:04:40;3.75;;;2.10;;
51296;SDS011;37380;45.186;9.792;2023-04-24T12:07:41;4.47;;;1.77;;
51296;SDS011;37380;45.186;9.792;2023-04-24T12:10:11;4.90;;;2.53;;
51296;SDS011;37380;45.186;9.792;2023-04-24T12:12:39;2.92;;;2.50;;
51296;SDS011;37380;45.186;9.792;2023-04-24T12:15:07;3.03;;;2.72;;
51296;SDS011;37380;45.186;9.792;2023-04-24T12:17:35;3.15;;;2.60;;
51296;SDS011;37380;45.186;9.792;2023-04-24T12:20:06;3.63;;;2.15;;
51296;SDS011;37380;45.186;9.792;2023-04-24T12:22:44;3.33;;;2.58;;
51296;SDS011;37380;45.186;9.792;2023-04-24T12:25:30;2.50;;;2.30;;
51296;SDS011;37380;45.186;9.792;2023-04-24T12:31:06;2.85;;;1.33;;
51296;SDS011;37380;45.186;9.792;2023-04-24T12:34:01;2.65;;;2.33;;
51296;SDS011;37380;45.186;9.792;2023-04-24T12:36:28;3.90;;;2.67;;
51296;SDS011;37380;45.186;9.792;2023-04-24T12:38:56;3.30;;;2.00;;
51296;SDS011;37380;45.186;9.792;2023-04-24T12:41:23;3.40;;;1.73;;
51296;SDS011;37380;45.186;9.792;2023-04-24T12:43:56;3.15;;;2.60;;
51296;SDS011;37380;45.186;9.792;2023-04-24T12:46:23;2.28;;;1.42;;
51296;SDS011;37380;45.186;9.792;2023-04-24T12:48:51;1.42;;;1.33;;
51296;SDS011;37380;45.186;9.792;2023-04-24T12:51:25;15.35;;;2.95;;
51296;SDS011;37380;45.186;9.792;2023-04-24T12:54:32;1.98;;;1.30;;
51296;SDS011;37380;45.186;9.792;2023-04-24T12:57:29;1.48;;;1.38;;
51296;SDS011;37380;45.186;9.792;2023-04-24T12:59:58;5.13;;;1.13;;
51296;SDS011;37380;45.186;9.792;2023-04-24T13:02:32;1.48;;;1.00;;
51296;SDS011;37380;45.186;9.792;2023-04-24T13:05:08;1.10;;;0.77;;
51296;SDS011;37380;45.186;9.792;2023-04-24T13:08:14;0.75;;;0.30;;
51296;SDS011;37380;45.186;9.792;2023-04-24T13:11:15;0.70;;;0.52;;
51296;SDS011;37380;45.186;9.792;2023-04-24T13:14:09;0.73;;;0.65;;
51296;SDS011;37380;45.186;9.792;2023-04-24T13:16:40;1.00;;;0.90;;
51296;SDS011;37380;45.186;9.792;2023-04-24T13:19:07;6.00;;;0.43;;
51296;SDS011;37380;45.186;9.792;2023-04-24T13:21:44;1.17;;;0.25;;
51296;SDS011;37380;45.186;9.792;2023-04-24T13:24:12;0.40;;;0.40;;
51296;SDS011;37380;45.186;9.792;2023-04-24T13:26:41;3.55;;;1.42;;
51296;SDS011;37380;45.186;9.792;2023-04-24T13:29:15;0.32;;;0.32;;
51296;SDS011;37380;45.186;9.792;2023-04-24T13:32:18;0.63;;;0.63;;
51296;SDS011;37380;45.186;9.792;2023-04-24T13:35:14;5.97;;;0.60;;
51296;SDS011;37380;45.186;9.792;2023-04-24T13:37:51;0.60;;;0.40;;
51296;SDS011;37380;45.186;9.792;2023-04-24T13:40:50;1.63;;;0.77;;
51296;SDS011;37380;45.186;9.792;2023-04-24T13:43:18;0.65;;;0.60;;
51296;SDS011;37380;45.186;9.792;2023-04-24T13:45:46;0.70;;;0.70;;
51296;SDS011;37380;45.186;9.792;2023-04-24T13:48:14;0.47;;;0.45;;
51296;SDS011;37380;45.186;9.792;2023-04-24T13:50:48;2.55;;;1.05;;
51296;SDS011;37380;45.186;9.792;2023-04-24T13:53:42;2.10;;;0.60;;
51296;SDS011;37380;45.186;9.792;2023-04-24T13:56:10;0.52;;;0.50;;
51296;SDS011;37380;45.186;9.792;2023-04-24T13:58:37;1.63;;;0.35;;
51296;SDS011;37380;45.186;9.792;2023-04-24T14:01:04;0.95;;;0.50;;
51296;SDS011;37380;45.186;9.792;2023-04-24T14:03:38;0.30;;;0.25;;
51296;SDS011;37380;45.186;9.792;2023-04-24T14:06:39;0.70;;;0.52;;
51296;SDS011;37380;45.186;9.792;2023-04-24T14:09:40;0.20;;;0.20;;
51296;SDS011;37380;45.186;9.792;2023-04-24T14:12:27;0.40;;;0.40;;
51296;SDS011;37380;45.186;9.792;2023-04-24T14:14:54;0.10;;;0.10;;
51296;SDS011;37380;45.186;9.792;2023-04-24T14:17:21;0.10;;;0.10;;
51296;SDS011;37380;45.186;9.792;2023-04-24T14:19:49;0.35;;;0.35;;
51296;SDS011;37380;45.186;9.792;2023-04-24T14:22:17;0.40;;;0.40;;
51296;SDS011;37380;45.186;9.792;2023-04-24T14:24:44;0.22;;;0.22;;
51296;SDS011;37380;45.186;9.792;2023-04-24T14:27:11;0.38;;;0.38;;
51296;SDS011;37380;45.186;9.792;2023-04-24T14:29:45;6.45;;;0.60;;
51296;SDS011;37380;45.186;9.792;2023-04-24T14:32:48;0.40;;;0.40;;
51296;SDS011;37380;45.186;9.792;2023-04-24T14:35:15;0.40;;;0.40;;
51296;SDS011;37380;45.186;9.792;2023-04-24T14:37:48;0.88;;;0.60;;
51296;SDS011;37380;45.186;9.792;2023-04-24T14:40:49;0.50;;;0.50;;
51296;SDS011;37380;45.186;9.792;2023-04-24T14:43:47;0.38;;;0.38;;
51296;SDS011;37380;45.186;9.792;2023-04-24T14:46:14;4.38;;;0.52;;
51296;SDS011;37380;45.186;9.792;2023-04-24T14:48:42;0.65;;;0.60;;
51296;SDS011;37380;45.186;9.792;2023-04-24T14:51:09;0.40;;;0.38;;
51296;SDS011;37380;45.186;9.792;2023-04-24T14:53:43;1.38;;;0.75;;
51296;SDS011;37380;45.186;9.792;2023-04-24T14:56:37;0.20;;;0.20;;
51296;SDS011;37380;45.186;9.792;2023-04-24T14:59:07;3.28;;;0.65;;
51296;SDS011;37380;45.186;9.792;2023-04-24T15:01:34;1.15;;;0.50;;
51296;SDS011;37380;45.186;9.792;2023-04-24T15:04:02;1.70;;;0.43;;
51296;SDS011;37380;45.186;9.792;2023-04-24T15:06:36;0.82;;;0.52;;
51296;SDS011;37380;45.186;9.792;2023-04-24T15:09:30;3.15;;;0.40;;
51296;SDS011;37380;45.186;9.792;2023-04-24T15:12:05;2.72;;;0.50;;
51296;SDS011;37380;45.186;9.792;2023-04-24T15:14:59;0.68;;;0.65;;
51296;SDS011;37380;45.186;9.792;2023-04-24T15:17:29;7.88;;;0.77;;
51296;SDS011;37380;45.186;9.792;2023-04-24T15:19:56;1.70;;;1.20;;
51296;SDS011;37380;45.186;9.792;2023-04-24T15:22:23;2.58;;;1.60;;
51296;SDS011;37380;45.186;9.792;2023-04-24T15:24:51;3.58;;;1.17;;
51296;SDS011;37380;45.186;9.792;2023-04-24T15:27:19;0.98;;;0.70;;
51296;SDS011;37380;45.186;9.792;2023-04-24T15:30:06;2.25;;;0.60;;
51296;SDS011;37380;45.186;9.792;2023-04-24T15:33:01;0.77;;;0.38;;